Terminal Aerodrome Forecast
Issued by NWS

Home | Current Version | Previous Version | Graphics & Text | Print | Product List | Glossary On
Versions: 1 2 3 4 5 6 7 8 9 10 11 12 13 14
000
FTUS43 KTOP 181132
TAFFOE
TAF
KFOE 181132Z 1812/1912 34023G34KT P6SM VCSH SCT008 OVC012
      TEMPO 1812/1816 3SM -RA BR
     FM181600 32021G34KT P6SM SCT025 SCT150
     FM190000 31009KT P6SM SKC=

USA.gov is the U.S. government's official web portal to all federal, state and local government web resources and services.